createdAt,value
2023-01-23T00:02:24.008Z,99069.75
2023-01-23T00:04:57.022Z,99071.19
2023-01-23T00:07:29.996Z,99071.38
2023-01-23T00:10:04.926Z,99081.44
2023-01-23T00:12:38.102Z,99066.88
2023-01-23T00:15:12.752Z,99076.59
2023-01-23T00:17:45.742Z,99081.78
2023-01-23T00:20:19.362Z,99078.91
2023-01-23T00:22:52.827Z,99081.06
2023-01-23T00:25:27.287Z,99073.50
2023-01-23T00:28:00.319Z,99077.66
2023-01-23T00:30:34.857Z,99076.94
2023-01-23T00:33:07.907Z,99073.50
2023-01-23T00:35:40.922Z,99080.00
2023-01-23T00:38:13.938Z,99075.31
2023-01-23T00:40:48.389Z,99076.91
2023-01-23T00:43:22.211Z,99078.53
2023-01-23T00:45:55.753Z,99071.69
2023-01-23T00:48:29.029Z,99075.28
2023-01-23T00:51:02.029Z,99066.66
2023-01-23T00:53:35.057Z,99077.81
2023-01-23T00:56:10.170Z,99087.50
2023-01-23T00:58:45.150Z,99080.16
2023-01-23T01:01:18.814Z,99090.22
2023-01-23T01:03:51.858Z,99085.38
2023-01-23T01:06:25.269Z,99095.25
2023-01-23T01:08:58.708Z,99100.47
2023-01-23T01:11:33.096Z,99096.53
2023-01-23T01:14:06.624Z,99104.41
2023-01-23T01:16:45.020Z,99107.47
2023-01-23T01:19:19.171Z,99106.75
2023-01-23T01:21:52.190Z,99106.00
2023-01-23T01:24:26.689Z,99107.09
2023-01-23T01:27:01.070Z,99119.28
2023-01-23T01:29:34.664Z,99111.59
2023-01-23T01:32:07.765Z,99110.16
2023-01-23T01:34:40.798Z,99120.03
2023-01-23T01:37:13.785Z,99107.44
2023-01-23T01:39:46.823Z,99111.19
2023-01-23T01:42:21.183Z,99115.53
2023-01-23T01:44:57.602Z,99122.69
2023-01-23T01:47:30.828Z,99123.78
2023-01-23T01:50:06.085Z,99123.06
2023-01-23T01:52:39.123Z,99107.25
2023-01-23T01:55:12.273Z,99117.66
2023-01-23T01:57:48.918Z,99120.91
2023-01-23T02:00:22.446Z,99117.31
2023-01-23T02:02:59.474Z,99117.16
2023-01-23T02:05:36.160Z,99114.41
2023-01-23T02:08:16.068Z,99116.22
2023-01-23T02:10:49.433Z,99113.53
2023-01-23T02:13:33.689Z,99115.84
2023-01-23T02:16:09.007Z,99114.81
2023-01-23T02:18:47.663Z,99106.69
2023-01-23T02:21:25.238Z,99102.91
2023-01-23T02:24:13.434Z,99102.22
2023-01-23T02:26:48.165Z,99105.78
2023-01-23T02:29:21.168Z,99098.59
2023-01-23T02:31:56.266Z,99104.16
2023-01-23T02:34:29.707Z,99108.66
2023-01-23T02:37:03.295Z,99111.72
2023-01-23T02:39:37.496Z,99122.34
2023-01-23T02:42:12.195Z,99121.81
2023-01-23T02:44:45.459Z,99110.84
2023-01-23T02:47:18.502Z,99116.97
2023-01-23T02:49:51.502Z,99110.84
2023-01-23T02:52:24.838Z,99110.50
2023-01-23T02:54:57.877Z,99117.31
2023-01-23T02:57:32.226Z,99111.91
2023-01-23T03:00:20.057Z,99117.31
2023-01-23T03:02:54.963Z,99114.81
2023-01-23T03:05:28.646Z,99115.69
2023-01-23T03:08:02.007Z,99115.16
2023-01-23T03:10:35.055Z,99119.66
2023-01-23T03:13:12.039Z,99111.75
2023-01-23T03:15:45.085Z,99109.03
2023-01-23T03:18:18.091Z,99116.22
2023-01-23T03:20:51.135Z,99103.66
2023-01-23T03:23:24.139Z,99101.13
2023-01-23T03:25:59.415Z,99109.78
2023-01-23T03:28:51.628Z,99102.19
2023-01-23T03:31:24.662Z,99105.44
2023-01-23T03:33:57.684Z,99100.94
2023-01-23T03:36:30.709Z,99105.09
2023-01-23T03:39:22.865Z,99101.28
2023-01-23T03:41:56.111Z,99091.41
2023-01-23T03:44:30.497Z,99087.47
2023-01-23T03:47:03.576Z,99092.84
2023-01-23T03:49:36.589Z,99098.44
2023-01-23T03:52:09.629Z,99105.25
2023-01-23T03:54:42.656Z,99104.75
2023-01-23T03:57:15.664Z,99108.69
2023-01-23T03:59:50.046Z,99110.13
2023-01-23T04:02:23.990Z,99116.03
2023-01-23T04:04:57.132Z,99125.38
2023-01-23T04:07:30.120Z,99125.91
2023-01-23T04:10:03.163Z,99133.06
2023-01-23T04:12:36.191Z,99139.19
2023-01-23T04:15:13.072Z,99140.28
2023-01-23T04:17:46.411Z,99146.75
2023-01-23T04:20:19.899Z,99146.41
2023-01-23T04:22:53.114Z,99151.09
2023-01-23T04:25:26.151Z,99140.66
2023-01-23T04:27:59.163Z,99144.22
2023-01-23T04:30:33.556Z,99149.63
2023-01-23T04:33:06.671Z,99148.56
2023-01-23T04:35:39.759Z,99146.06
2023-01-23T04:38:12.737Z,99150.88
2023-01-23T04:40:47.251Z,99146.41
2023-01-23T04:43:20.610Z,99153.91
2023-01-23T04:45:56.945Z,99146.19
2023-01-23T04:48:29.973Z,99155.72
2023-01-23T04:51:03.022Z,99151.44
2023-01-23T04:53:36.253Z,99150.19
2023-01-23T04:56:09.452Z,99148.56
2023-01-23T04:58:42.452Z,99150.00
2023-01-23T05:01:16.863Z,99149.25
2023-01-23T05:03:50.146Z,99143.69
2023-01-23T05:06:23.191Z,99145.84
2023-01-23T05:08:56.243Z,99143.19
2023-01-23T05:11:29.262Z,99138.66
2023-01-23T05:14:02.309Z,99134.91
2023-01-23T05:16:36.721Z,99136.13
2023-01-23T05:19:09.741Z,99139.75
2023-01-23T05:21:42.965Z,99144.59
2023-01-23T05:24:15.997Z,99147.28
2023-01-23T05:26:49.026Z,99145.66
2023-01-23T05:29:22.064Z,99142.25
2023-01-23T05:31:56.482Z,99146.41
2023-01-23T05:34:29.586Z,99149.63
2023-01-23T05:37:02.595Z,99149.63
2023-01-23T05:39:35.652Z,99154.66
2023-01-23T05:42:08.647Z,99158.44
2023-01-23T05:44:41.640Z,99165.28
2023-01-23T05:47:16.023Z,99155.38
2023-01-23T05:49:49.006Z,99167.97
2023-01-23T05:52:22.744Z,99161.66
2023-01-23T05:54:55.873Z,99163.28
2023-01-23T05:57:28.907Z,99166.69
2023-01-23T06:00:01.988Z,99162.19
2023-01-23T06:02:36.789Z,99171.38
2023-01-23T06:05:11.479Z,99174.59
2023-01-23T06:07:44.528Z,99183.41
2023-01-23T06:10:17.863Z,99184.31
2023-01-23T06:12:51.159Z,99192.06
2023-01-23T06:15:24.260Z,99189.19
2023-01-23T06:17:58.608Z,99185.59
2023-01-23T06:20:31.783Z,99200.34
2023-01-23T06:23:04.789Z,99196.72
2023-01-23T06:25:38.643Z,99196.19
2023-01-23T06:28:11.627Z,99204.94
2023-01-23T06:30:44.651Z,99207.50
2023-01-23T06:33:19.020Z,99215.41
2023-01-23T06:35:59.567Z,99215.75
2023-01-23T06:38:33.103Z,99225.28
2023-01-23T06:41:06.356Z,99232.28
2023-01-23T06:43:39.489Z,99239.50
2023-01-23T06:46:13.102Z,99232.44
2023-01-23T06:48:47.506Z,99234.09
2023-01-23T06:51:20.533Z,99229.41
2023-01-23T06:53:53.668Z,99238.59
2023-01-23T06:56:26.660Z,99228.84
2023-01-23T06:58:59.671Z,99241.28
2023-01-23T07:01:32.756Z,99238.22
2023-01-23T07:04:08.972Z,99251.91
2023-01-23T07:06:42.018Z,99246.84
2023-01-23T07:09:15.057Z,99252.81
2023-01-23T07:11:48.088Z,99260.91
2023-01-23T07:14:21.343Z,99263.41
2023-01-23T07:16:55.622Z,99262.47
2023-01-23T07:19:30.030Z,99267.91
2023-01-23T07:22:03.530Z,99268.28
2023-01-23T07:24:36.530Z,99261.44
2023-01-23T07:27:09.579Z,99263.25
2023-01-23T07:29:42.955Z,99262.84
2023-01-23T07:32:16.003Z,99257.63
2023-01-23T07:34:51.640Z,99261.44
2023-01-23T07:37:25.107Z,99257.47
2023-01-23T07:39:58.101Z,99259.06
2023-01-23T07:42:31.153Z,99261.63
2023-01-23T07:45:04.455Z,99256.41
2023-01-23T07:47:39.739Z,99250.09
2023-01-23T07:50:15.042Z,99250.50
2023-01-23T07:52:48.096Z,99248.69
2023-01-23T07:55:21.077Z,99250.25
2023-01-23T07:57:54.103Z,99248.66
2023-01-23T08:00:29.776Z,99249.88
2023-01-23T08:03:03.136Z,99254.94
2023-01-23T08:05:37.446Z,99245.22
2023-01-23T08:08:13.724Z,99245.22
2023-01-23T08:10:47.014Z,99241.47
2023-01-23T08:13:20.031Z,99249.34
2023-01-23T08:15:53.409Z,99251.16
2023-01-23T08:18:26.929Z,99247.78
2023-01-23T08:21:03.878Z,99245.03
2023-01-23T08:23:36.939Z,99231.91
2023-01-23T08:26:18.099Z,99236.28
2023-01-23T08:28:51.082Z,99244.53
2023-01-23T08:31:24.234Z,99247.56
2023-01-23T08:33:57.540Z,99254.22
2023-01-23T08:36:31.990Z,99242.53
2023-01-23T08:39:05.475Z,99243.06
2023-01-23T08:41:38.463Z,99248.78
2023-01-23T08:44:11.479Z,99252.75
2023-01-23T08:46:44.954Z,99252.13
2023-01-23T08:49:19.565Z,99263.50
2023-01-23T08:51:53.963Z,99263.84
2023-01-23T08:54:27.098Z,99263.69
2023-01-23T08:57:00.380Z,99253.78
2023-01-23T08:59:33.359Z,99254.66
2023-01-23T09:02:06.455Z,99266.59
2023-01-23T09:04:39.568Z,99267.13
2023-01-23T09:07:14.088Z,99264.53
2023-01-23T09:09:47.162Z,99264.88
2023-01-23T09:12:20.194Z,99273.00
2023-01-23T09:14:53.204Z,99270.47
2023-01-23T09:17:26.580Z,99276.78
2023-01-23T09:20:00.616Z,99281.47
2023-01-23T09:22:35.022Z,99263.00
2023-01-23T09:25:09.395Z,99270.53
2023-01-23T09:27:42.449Z,99276.13
2023-01-23T09:30:16.120Z,99294.66
2023-01-23T09:32:49.156Z,99287.47
2023-01-23T09:35:23.404Z,99286.94
2023-01-23T09:38:01.020Z,99290.47
2023-01-23T09:40:37.022Z,99280.09
2023-01-23T09:43:18.016Z,99272.72
2023-01-23T09:46:09.186Z,99271.09
2023-01-23T09:48:45.779Z,99273.63
2023-01-23T09:51:24.609Z,99264.94
2023-01-23T09:54:05.680Z,99266.38
2023-01-23T09:56:45.138Z,99275.06
2023-01-23T09:59:28.953Z,99270.72
2023-01-23T10:02:01.993Z,99274.28
2023-01-23T10:04:35.093Z,99263.81
2023-01-23T10:07:31.883Z,99261.78
2023-01-23T10:10:34.957Z,99262.31
2023-01-23T10:13:14.923Z,99267.34
2023-01-23T10:16:10.097Z,99260.31
2023-01-23T10:18:49.443Z,99252.81
2023-01-23T10:21:32.147Z,99251.84
2023-01-23T10:24:24.088Z,99258.69
2023-01-23T10:27:18.545Z,99263.31
2023-01-23T10:29:58.096Z,99259.25
2023-01-23T10:32:40.948Z,99252.09
2023-01-23T10:35:19.371Z,99249.44
2023-01-23T10:37:57.818Z,99244.00
2023-01-23T10:40:48.762Z,99240.44
2023-01-23T10:43:23.707Z,99254.06
2023-01-23T10:45:56.830Z,99246.97
2023-01-23T10:48:41.411Z,99240.38
2023-01-23T10:51:46.006Z,99243.25
2023-01-23T10:54:36.619Z,99248.06
2023-01-23T10:57:24.972Z,99247.69
2023-01-23T11:00:04.386Z,99244.97
2023-01-23T11:02:39.155Z,99236.81
2023-01-23T11:05:46.843Z,99225.34
2023-01-23T11:08:30.642Z,99221.97
2023-01-23T11:11:27.301Z,99225.56
2023-01-23T11:14:12.024Z,99228.31
2023-01-23T11:16:46.515Z,99219.03
2023-01-23T11:19:23.544Z,99215.50
2023-01-23T11:21:59.521Z,99214.00
2023-01-23T11:24:41.913Z,99226.00
2023-01-23T11:27:23.611Z,99225.03
2023-01-23T11:30:28.645Z,99222.75
2023-01-23T11:33:14.409Z,99220.28
2023-01-23T11:36:00.112Z,99216.25
2023-01-23T11:38:51.361Z,99212.44
2023-01-23T11:41:31.378Z,99220.63
2023-01-23T11:44:11.248Z,99209.56
2023-01-23T11:47:28.446Z,99210.78
2023-01-23T11:50:31.515Z,99195.97
2023-01-23T11:53:19.225Z,99187.31
2023-01-23T11:56:22.872Z,99182.22
2023-01-23T11:59:21.834Z,99183.97
2023-01-23T12:02:17.625Z,99185.63
2023-01-23T12:05:48.132Z,99176.91
2023-01-23T12:08:31.963Z,99172.84
2023-01-23T12:11:16.546Z,99174.00
2023-01-23T12:14:10.932Z,99173.09
2023-01-23T12:17:00.048Z,99168.03
2023-01-23T12:19:56.322Z,99165.66
2023-01-23T12:22:42.913Z,99166.50
2023-01-23T12:25:27.035Z,99173.47
2023-01-23T12:28:11.842Z,99161.28
2023-01-23T12:31:05.732Z,99146.94
2023-01-23T12:34:00.739Z,99147.00
2023-01-23T12:37:10.203Z,99145.97
2023-01-23T12:40:01.414Z,99143.28
2023-01-23T12:42:43.995Z,99144.41
2023-01-23T12:45:23.527Z,99136.94
2023-01-23T12:48:04.696Z,99130.91
2023-01-23T12:50:46.051Z,99123.81
2023-01-23T12:53:22.132Z,99119.00
2023-01-23T12:56:02.233Z,99126.00
2023-01-23T12:58:42.138Z,99132.03
2023-01-23T13:01:30.801Z,99121.28
2023-01-23T13:04:19.601Z,99124.63
2023-01-23T13:07:18.953Z,99115.25
2023-01-23T13:10:21.930Z,99103.84
2023-01-23T13:12:58.083Z,99107.00
2023-01-23T13:15:40.427Z,99105.16
2023-01-23T13:18:28.112Z,99110.13
2023-01-23T13:21:22.656Z,99110.13
2023-01-23T13:25:07.100Z,99110.59
2023-01-23T13:27:47.373Z,99118.69
2023-01-23T13:31:01.994Z,99120.38
2023-01-23T13:34:06.763Z,99123.88
2023-01-23T13:36:48.105Z,99113.13
2023-01-23T13:39:28.564Z,99104.66
2023-01-23T13:42:35.040Z,99116.28
2023-01-23T13:45:31.798Z,99109.22
2023-01-23T14:22:15.416Z,99110.59
2023-01-23T14:24:51.031Z,99114.69
2023-01-23T14:27:44.406Z,99117.53
2023-01-23T14:30:28.448Z,99115.47
2023-01-23T14:33:01.700Z,99123.41
2023-01-23T14:35:40.126Z,99105.97
2023-01-23T14:38:24.549Z,99108.66
2023-01-23T14:40:59.132Z,99108.59
2023-01-23T14:43:33.291Z,99105.78
2023-01-23T14:46:12.936Z,99104.22
2023-01-23T14:48:51.108Z,99104.09
2023-01-23T14:51:27.138Z,99101.59
2023-01-23T14:54:05.202Z,99088.06
2023-01-23T14:56:40.997Z,99098.16
2023-01-23T14:59:22.223Z,99095.72
2023-01-23T15:01:56.188Z,99092.28
2023-01-23T15:04:31.323Z,99096.91
2023-01-23T15:07:04.448Z,99091.78
2023-01-23T15:09:41.657Z,99094.78
2023-01-23T15:12:18.714Z,99096.44
2023-01-23T15:14:56.110Z,99094.63
2023-01-23T15:17:29.238Z,99096.59
2023-01-23T15:20:02.231Z,99101.56
2023-01-23T15:22:35.773Z,99094.31
2023-01-23T15:25:29.523Z,99084.78
2023-01-23T15:28:02.581Z,99084.78
2023-01-23T15:30:45.359Z,99084.88
2023-01-23T15:33:27.525Z,99089.84
2023-01-23T15:36:06.809Z,99086.41
2023-01-23T15:38:39.813Z,99073.72
2023-01-23T15:41:17.302Z,99082.50
2023-01-23T15:43:50.446Z,99087.63
2023-01-23T15:46:23.462Z,99089.84
2023-01-23T15:48:56.457Z,99094.97
2023-01-23T15:51:29.494Z,99094.72
2023-01-23T15:54:02.927Z,99100.75
2023-01-23T15:56:48.800Z,99104.09
2023-01-23T15:59:23.891Z,99104.50
2023-01-23T16:01:56.969Z,99100.59
2023-01-23T16:04:30.038Z,99110.03
2023-01-23T16:07:08.087Z,99113.06
2023-01-23T16:09:42.237Z,99112.06
2023-01-23T16:12:18.871Z,99112.72
2023-01-23T16:14:51.916Z,99108.81
2023-01-23T16:17:25.032Z,99115.44
2023-01-23T16:19:58.043Z,99119.19
2023-01-23T16:22:31.043Z,99118.75
2023-01-23T16:25:05.135Z,99115.25
2023-01-23T16:27:40.282Z,99119.19
2023-01-23T16:30:18.840Z,99110.72
2023-01-23T16:32:52.108Z,99114.28
2023-01-23T16:35:25.726Z,99120.88
2023-01-23T16:38:00.036Z,99124.94
2023-01-23T16:40:34.532Z,99126.72
2023-01-23T16:43:10.661Z,99118.38
2023-01-23T16:45:43.891Z,99128.56
2023-01-23T16:48:26.380Z,99129.91
2023-01-23T16:51:08.176Z,99138.06
2023-01-23T16:53:44.674Z,99141.63
2023-01-23T16:56:23.430Z,99139.84
2023-01-23T16:58:57.845Z,99143.34
2023-01-23T17:01:35.130Z,99144.41
2023-01-23T17:04:08.497Z,99144.28
2023-01-23T17:06:41.514Z,99141.41
2023-01-23T17:09:15.208Z,99145.41
2023-01-23T17:11:51.526Z,99156.31
2023-01-23T17:14:30.073Z,99150.69
2023-01-23T17:17:08.431Z,99163.25
2023-01-23T17:19:43.623Z,99157.44
2023-01-23T17:22:21.621Z,99170.38
2023-01-23T17:24:54.927Z,99170.78
2023-01-23T17:27:28.333Z,99163.88
2023-01-23T17:30:02.672Z,99165.56
2023-01-23T17:32:39.029Z,99169.19
2023-01-23T17:35:22.765Z,99166.41
2023-01-23T17:37:57.737Z,99172.16
2023-01-23T17:40:31.197Z,99179.59
2023-01-23T17:43:04.365Z,99168.88
2023-01-23T17:45:38.890Z,99169.75
2023-01-23T17:48:15.173Z,99172.19
2023-01-23T17:50:48.284Z,99181.41
2023-01-23T17:53:21.516Z,99172.38
2023-01-23T17:55:54.829Z,99187.91
2023-01-23T17:58:27.920Z,99181.41
2023-01-23T18:01:02.697Z,99169.53
2023-01-23T18:03:35.887Z,99181.41
2023-01-23T18:06:09.095Z,99186.63
2023-01-23T18:08:42.397Z,99187.53
2023-01-23T18:11:21.184Z,99180.94
2023-01-23T18:14:16.167Z,99179.59
2023-01-23T18:16:51.171Z,99173.22
2023-01-23T18:19:27.367Z,99180.84
2023-01-23T18:22:01.105Z,99186.53
2023-01-23T18:24:35.063Z,99170.81
2023-01-23T18:27:21.524Z,99182.31
2023-01-23T18:30:18.712Z,99186.78
2023-01-23T18:33:20.047Z,99175.63
2023-01-23T18:36:16.611Z,99171.97
2023-01-23T18:39:32.055Z,99183.53
2023-01-23T18:42:18.277Z,99174.31
2023-01-23T18:44:58.120Z,99176.38
2023-01-23T18:47:31.719Z,99176.94
2023-01-23T18:50:08.263Z,99169.28
2023-01-23T18:53:06.210Z,99176.34
2023-01-23T18:55:43.421Z,99164.00
2023-01-23T18:58:32.049Z,99150.03
2023-01-23T19:01:18.271Z,99167.50
2023-01-23T19:03:52.145Z,99167.66
2023-01-23T19:06:28.609Z,99167.16
2023-01-23T19:09:02.506Z,99175.53
2023-01-23T19:11:51.505Z,99175.28
2023-01-23T19:14:46.902Z,99179.38
2023-01-23T19:17:34.117Z,99181.41
2023-01-23T19:20:21.469Z,99192.16
2023-01-23T19:23:09.860Z,99181.09
2023-01-23T19:25:45.454Z,99189.91
2023-01-23T19:28:19.502Z,99189.88
2023-01-23T19:30:53.300Z,99192.97
2023-01-23T19:33:26.383Z,99196.41
2023-01-23T19:35:59.850Z,99189.81
2023-01-23T19:38:34.284Z,99193.59
2023-01-23T19:41:19.511Z,99193.81
2023-01-23T19:43:55.569Z,99197.88
2023-01-23T19:46:32.578Z,99201.72
2023-01-23T19:49:06.014Z,99207.72
2023-01-23T19:51:40.130Z,99204.31
2023-01-23T19:54:16.255Z,99204.72
2023-01-23T19:56:49.323Z,99203.44
2023-01-23T19:59:22.330Z,99194.94
2023-01-23T20:01:55.544Z,99210.75
2023-01-23T20:04:28.686Z,99213.34
2023-01-23T20:07:01.740Z,99213.25
2023-01-23T20:09:36.067Z,99207.81
2023-01-23T20:12:09.149Z,99213.84
2023-01-23T20:14:42.136Z,99227.03
2023-01-23T20:17:15.230Z,99214.38
2023-01-23T20:19:48.262Z,99211.78
2023-01-23T20:22:21.310Z,99202.72
2023-01-23T20:24:55.618Z,99203.19
2023-01-23T20:27:28.633Z,99205.69
2023-01-23T20:30:02.551Z,99216.88
2023-01-23T20:32:35.985Z,99214.28
2023-01-23T20:35:10.110Z,99222.31
2023-01-23T20:37:43.124Z,99216.75
2023-01-23T20:40:18.233Z,99225.34
2023-01-23T20:42:52.014Z,99227.00
2023-01-23T20:45:26.670Z,99231.44
2023-01-23T20:47:59.695Z,99235.59
2023-01-23T20:50:32.722Z,99238.88
2023-01-23T20:53:23.273Z,99239.22
2023-01-23T20:55:59.410Z,99253.13
2023-01-23T20:58:50.564Z,99249.16
2023-01-23T21:01:26.602Z,99245.09
2023-01-23T21:03:59.665Z,99254.53
2023-01-23T21:06:32.692Z,99255.44
2023-01-23T21:09:05.772Z,99248.13
2023-01-23T21:11:40.160Z,99252.66
2023-01-23T21:14:14.411Z,99252.88
2023-01-23T21:16:47.742Z,99258.06
2023-01-23T21:19:21.470Z,99253.56
2023-01-23T21:21:54.535Z,99249.50
2023-01-23T21:24:28.483Z,99237.06
2023-01-23T21:27:03.250Z,99231.03
2023-01-23T21:29:36.405Z,99231.16
2023-01-23T21:32:09.493Z,99234.44
2023-01-23T21:34:42.573Z,99230.38
2023-01-23T21:37:15.553Z,99244.06
2023-01-23T21:39:48.675Z,99243.25
2023-01-23T21:42:23.008Z,99241.16
2023-01-23T21:44:57.197Z,99253.69
2023-01-23T21:47:30.231Z,99257.38
2023-01-23T21:50:03.363Z,99256.97
2023-01-23T21:52:36.408Z,99264.50
2023-01-23T21:55:10.337Z,99264.88
2023-01-23T21:57:44.723Z,99270.91
2023-01-23T22:00:36.574Z,99265.97
2023-01-23T22:03:09.607Z,99263.16
2023-01-23T22:05:42.710Z,99270.53
2023-01-23T22:08:15.788Z,99276.28
2023-01-23T22:10:48.771Z,99268.59
2023-01-23T22:13:23.224Z,99261.09
2023-01-23T22:15:58.344Z,99267.41
2023-01-23T22:18:32.224Z,99269.19
2023-01-23T22:21:07.179Z,99274.59
2023-01-23T22:23:40.350Z,99276.47
2023-01-23T22:26:13.571Z,99273.31
2023-01-23T22:28:48.410Z,99269.91
2023-01-23T22:31:21.475Z,99272.66
2023-01-23T22:33:54.658Z,99264.94
2023-01-23T22:36:27.675Z,99266.94
2023-01-23T22:39:00.715Z,99276.38
2023-01-23T22:41:34.072Z,99284.31
2023-01-23T22:44:08.422Z,99277.50
2023-01-23T22:46:41.456Z,99284.72
2023-01-23T22:49:14.445Z,99288.34
2023-01-23T22:51:47.483Z,99284.66
2023-01-23T22:54:20.556Z,99283.16
2023-01-23T22:56:53.509Z,99288.69
2023-01-23T22:59:28.206Z,99286.47
2023-01-23T23:02:01.341Z,99286.03
2023-01-23T23:04:34.353Z,99276.03
2023-01-23T23:07:07.404Z,99295.25
2023-01-23T23:09:40.434Z,99285.03
2023-01-23T23:12:13.812Z,99285.03
2023-01-23T23:14:48.295Z,99281.13
2023-01-23T23:17:21.332Z,99279.22
2023-01-23T23:19:54.350Z,99276.63
2023-01-23T23:22:27.283Z,99277.13
2023-01-23T23:25:00.296Z,99282.53
2023-01-23T23:27:33.325Z,99273.91
2023-01-23T23:30:09.984Z,99282.53
2023-01-23T23:32:42.963Z,99279.66
2023-01-23T23:35:16.160Z,99282.59
2023-01-23T23:37:49.639Z,99281.97
2023-01-23T23:40:22.598Z,99289.59
2023-01-23T23:42:55.620Z,99284.09
2023-01-23T23:45:30.022Z,99285.25
2023-01-23T23:48:03.230Z,99281.44
2023-01-23T23:50:36.278Z,99284.16
2023-01-23T23:53:09.326Z,99281.69
2023-01-23T23:55:42.307Z,99273.75
2023-01-23T23:58:17.011Z,99272.56
